Time;durP1;ratioP1;P1;durP2;ratioP2;P2;SDS_P1;SDS_P2;PMS_P1;PMS_P2;Temp;Humidity;BMP_temperature;BMP_pressure;BME280_temperature;BME280_humidity;BME280_pressure;Samples;Min_cycle;Max_cycle;Signal;HPM_P1;HPM_P2
2022/03/04 00:02:11;;;;;;;20.92;12.05;;;;;;;;;;5071800;28;20062;-79
2022/03/04 00:04:37;;;;;;;21.88;11.55;;;;;;;;;;5087860;28;20047;-79
2022/03/04 00:07:04;;;;;;;25.25;12.63;;;;;;;;;;5088694;28;20043;-76
2022/03/04 00:09:30;;;;;;;25.13;12.88;;;;;;;;;;5104961;28;20063;-77
2022/03/04 00:11:57;;;;;;;24.83;13.20;;;;;;;;;;5106397;28;20122;-77
2022/03/04 00:14:24;;;;;;;26.00;14.10;;;;;;;;;;5089056;28;20048;-84
2022/03/04 00:16:51;;;;;;;23.95;13.43;;;;;;;;;;5107188;28;20444;-81
2022/03/04 00:19:17;;;;;;;25.25;12.98;;;;;;;;;;5088006;28;20043;-82
2022/03/04 00:21:44;;;;;;;31.00;13.52;;;;;;;;;;5091116;28;20116;-79
2022/03/04 00:24:11;;;;;;;25.92;14.10;;;;;;;;;;5086127;28;20127;-79
2022/03/04 00:26:38;;;;;;;23.60;12.45;;;;;;;;;;5107673;28;20040;-79
2022/03/04 00:29:05;;;;;;;26.30;13.20;;;;;;;;;;5089584;28;20076;-78
2022/03/04 00:31:31;;;;;;;24.70;13.38;;;;;;;;;;5105090;28;20055;-78
2022/03/04 00:33:57;;;;;;;25.25;13.18;;;;;;;;;;5091098;27;20189;-78
2022/03/04 00:36:23;;;;;;;26.30;13.70;;;;;;;;;;5106906;27;20057;-80
2022/03/04 00:38:50;;;;;;;24.10;12.73;;;;;;;;;;5073099;28;20044;-79
2022/03/04 00:41:17;;;;;;;25.70;12.90;;;;;;;;;;5103118;28;20047;-83
2022/03/04 00:43:44;;;;;;;25.10;13.88;;;;;;;;;;5105782;28;20114;-80
2022/03/04 00:46:10;;;;;;;27.73;13.45;;;;;;;;;;5106523;28;20079;-76
2022/03/04 00:48:36;;;;;;;21.63;12.25;;;;;;;;;;5091112;28;20406;-77
2022/03/04 00:51:02;;;;;;;26.08;13.25;;;;;;;;;;5106017;28;20127;-77
2022/03/04 00:53:30;;;;;;;23.05;12.40;;;;;;;;;;5107912;28;20459;-77
2022/03/04 00:55:56;;;;;;;23.35;12.18;;;;;;;;;;5090781;28;20044;-78
2022/03/04 00:58:22;;;;;;;23.65;13.05;;;;;;;;;;5088671;28;20066;-78
2022/03/04 01:00:48;;;;;;;26.90;13.38;;;;;;;;;;5106554;28;20079;-77
2022/03/04 01:03:14;;;;;;;25.98;13.00;;;;;;;;;;5106601;28;20043;-77
2022/03/04 01:05:40;;;;;;;24.20;13.88;;;;;;;;;;5105783;28;20039;-77
2022/03/04 01:08:07;;;;;;;24.70;13.52;;;;;;;;;;5087825;28;20371;-77
2022/03/04 01:10:33;;;;;;;27.75;13.65;;;;;;;;;;5089067;28;20141;-77
2022/03/04 01:12:59;;;;;;;28.52;13.70;;;;;;;;;;5106357;28;20483;-77
2022/03/04 01:15:26;;;;;;;26.65;13.50;;;;;;;;;;5105364;28;20343;-77
2022/03/04 01:17:52;;;;;;;25.60;13.40;;;;;;;;;;5088711;28;20058;-77
2022/03/04 01:20:18;;;;;;;28.48;13.07;;;;;;;;;;5106129;28;20042;-77
2022/03/04 01:22:44;;;;;;;29.38;14.15;;;;;;;;;;5103924;28;20044;-76
2022/03/04 01:25:10;;;;;;;26.58;13.35;;;;;;;;;;5091402;28;20122;-77
2022/03/04 01:27:36;;;;;;;29.33;14.63;;;;;;;;;;5106617;28;20470;-77
2022/03/04 01:30:04;;;;;;;29.80;14.73;;;;;;;;;;5102175;28;20042;-76
2022/03/04 01:32:30;;;;;;;27.10;14.27;;;;;;;;;;5103919;28;20043;-77
2022/03/04 01:34:56;;;;;;;30.58;14.68;;;;;;;;;;5107032;28;20375;-77
2022/03/04 01:37:22;;;;;;;27.90;14.27;;;;;;;;;;5106018;28;20286;-76
2022/03/04 01:39:48;;;;;;;30.42;15.55;;;;;;;;;;5107828;28;20058;-77
2022/03/04 01:42:14;;;;;;;30.70;14.80;;;;;;;;;;5085812;28;20047;-77
2022/03/04 01:44:40;;;;;;;29.95;15.25;;;;;;;;;;5107477;28;20063;-77
2022/03/04 01:47:06;;;;;;;29.60;14.70;;;;;;;;;;5103637;28;20048;-77
2022/03/04 01:49:33;;;;;;;28.58;13.85;;;;;;;;;;5099872;28;20104;-77
2022/03/04 01:51:59;;;;;;;30.50;15.38;;;;;;;;;;5081085;28;20054;-76
2022/03/04 01:54:25;;;;;;;32.15;14.40;;;;;;;;;;5114150;28;20054;-78
2022/03/04 01:56:52;;;;;;;29.17;15.43;;;;;;;;;;5085540;28;20201;-77
2022/03/04 01:59:19;;;;;;;27.08;15.25;;;;;;;;;;5077694;28;20051;-77
2022/03/04 02:01:45;;;;;;;32.03;14.95;;;;;;;;;;5099446;28;20040;-77
2022/03/04 02:04:11;;;;;;;32.75;15.95;;;;;;;;;;5104858;28;20047;-77
2022/03/04 02:06:37;;;;;;;29.52;14.98;;;;;;;;;;5104542;28;20051;-77
2022/03/04 02:09:04;;;;;;;30.25;14.82;;;;;;;;;;5104677;28;20035;-77
2022/03/04 02:11:30;;;;;;;33.80;15.73;;;;;;;;;;5072114;28;20054;-77
2022/03/04 02:13:56;;;;;;;34.53;16.08;;;;;;;;;;5088577;28;20043;-76
2022/03/04 02:16:26;;;;;;;33.45;16.42;;;;;;;;;;5107503;28;20032;-77
2022/03/04 02:18:52;;;;;;;27.20;15.07;;;;;;;;;;5106217;28;20055;-76
2022/03/04 02:21:20;;;;;;;33.33;17.13;;;;;;;;;;5106336;28;20068;-77
2022/03/04 02:23:47;;;;;;;36.53;17.38;;;;;;;;;;5087200;28;20066;-77
2022/03/04 02:26:13;;;;;;;34.53;16.13;;;;;;;;;;5090372;28;20048;-77
2022/03/04 02:28:39;;;;;;;36.60;17.08;;;;;;;;;;5109375;28;20127;-77
2022/03/04 02:31:05;;;;;;;38.45;18.02;;;;;;;;;;5090730;28;20066;-76
2022/03/04 02:33:31;;;;;;;34.55;16.90;;;;;;;;;;5105579;28;20128;-76
2022/03/04 02:35:57;;;;;;;38.38;17.80;;;;;;;;;;5109822;28;20054;-76
2022/03/04 02:38:24;;;;;;;34.60;17.77;;;;;;;;;;5090252;28;20097;-76
2022/03/04 02:40:50;;;;;;;37.13;18.33;;;;;;;;;;5109754;28;20059;-76
2022/03/04 02:43:16;;;;;;;33.10;17.85;;;;;;;;;;5103170;28;20108;-76
2022/03/04 02:45:42;;;;;;;39.90;17.73;;;;;;;;;;5091759;28;20131;-76
2022/03/04 02:48:08;;;;;;;44.28;18.38;;;;;;;;;;5091250;28;20044;-76
2022/03/04 02:50:34;;;;;;;37.17;17.80;;;;;;;;;;5109593;28;20548;-76
2022/03/04 02:53:00;;;;;;;38.95;19.23;;;;;;;;;;5092021;28;20047;-76
2022/03/04 02:55:27;;;;;;;38.90;18.45;;;;;;;;;;5107443;28;20043;-76
2022/03/04 02:57:53;;;;;;;41.35;18.58;;;;;;;;;;5092243;28;20070;-76
2022/03/04 03:00:19;;;;;;;35.97;18.17;;;;;;;;;;5107722;28;20594;-77
2022/03/04 03:02:46;;;;;;;39.22;18.75;;;;;;;;;;5109726;28;20044;-77
2022/03/04 03:05:12;;;;;;;40.92;19.65;;;;;;;;;;5107544;28;20058;-76
2022/03/04 03:07:38;;;;;;;38.72;20.13;;;;;;;;;;5090730;28;20035;-77
2022/03/04 03:10:05;;;;;;;43.20;21.13;;;;;;;;;;5107156;28;20044;-77
2022/03/04 03:12:31;;;;;;;39.17;18.45;;;;;;;;;;5108898;28;20054;-77
2022/03/04 03:14:57;;;;;;;39.30;17.75;;;;;;;;;;5118621;27;20039;-76
2022/03/04 03:17:23;;;;;;;36.90;18.63;;;;;;;;;;5108287;28;20119;-76
2022/03/04 03:19:49;;;;;;;39.47;18.23;;;;;;;;;;5107210;28;20046;-76
2022/03/04 03:22:18;;;;;;;42.05;18.80;;;;;;;;;;5102551;27;20118;-76
2022/03/04 03:24:44;;;;;;;44.08;19.65;;;;;;;;;;5120483;27;20070;-76
2022/03/04 03:27:11;;;;;;;39.55;19.17;;;;;;;;;;5089912;28;20093;-76
2022/03/04 03:29:37;;;;;;;44.17;19.55;;;;;;;;;;5107314;28;20148;-76
2022/03/04 03:32:04;;;;;;;41.45;19.70;;;;;;;;;;5108803;28;20043;-76
2022/03/04 03:34:30;;;;;;;41.20;18.42;;;;;;;;;;5108055;28;20035;-76
2022/03/04 03:36:56;;;;;;;45.20;20.52;;;;;;;;;;5091006;28;20224;-77
2022/03/04 03:39:22;;;;;;;42.60;19.13;;;;;;;;;;5107007;28;20043;-76
2022/03/04 03:41:48;;;;;;;44.45;21.48;;;;;;;;;;5091179;28;21034;-77
2022/03/04 03:44:14;;;;;;;46.00;20.08;;;;;;;;;;5102122;28;20055;-76
2022/03/04 03:46:40;;;;;;;41.08;20.30;;;;;;;;;;5107646;28;20047;-77
2022/03/04 03:49:07;;;;;;;47.70;20.27;;;;;;;;;;5108467;28;20039;-76
2022/03/04 03:51:33;;;;;;;48.72;21.02;;;;;;;;;;5107705;28;20046;-76
2022/03/04 03:54:00;;;;;;;42.50;19.35;;;;;;;;;;5108508;28;20043;-77
2022/03/04 03:56:26;;;;;;;42.67;20.02;;;;;;;;;;5106576;28;20044;-77
2022/03/04 03:58:52;;;;;;;44.00;21.17;;;;;;;;;;5107372;28;20154;-77
2022/03/04 04:01:19;;;;;;;46.75;19.85;;;;;;;;;;5108016;28;20385;-77
2022/03/04 04:03:45;;;;;;;43.40;19.88;;;;;;;;;;5108439;28;20052;-76
2022/03/04 04:06:11;;;;;;;40.00;19.83;;;;;;;;;;5108145;28;20083;-76
2022/03/04 04:08:38;;;;;;;44.88;20.20;;;;;;;;;;5107816;28;20083;-77
2022/03/04 04:11:04;;;;;;;46.72;20.90;;;;;;;;;;5106430;28;20053;-76
2022/03/04 04:13:30;;;;;;;46.97;19.25;;;;;;;;;;5107811;28;20047;-76
2022/03/04 04:15:56;;;;;;;40.13;19.02;;;;;;;;;;5106447;28;20063;-76
2022/03/04 04:18:22;;;;;;;44.90;20.48;;;;;;;;;;5106549;28;20086;-76
2022/03/04 04:20:48;;;;;;;45.97;21.08;;;;;;;;;;5106554;28;20043;-76
2022/03/04 04:23:14;;;;;;;49.15;20.92;;;;;;;;;;5107898;28;20059;-77
2022/03/04 04:25:40;;;;;;;42.50;20.75;;;;;;;;;;5089763;28;20067;-77
2022/03/04 04:28:06;;;;;;;47.60;20.67;;;;;;;;;;5107933;28;20052;-77
2022/03/04 04:30:32;;;;;;;43.88;19.02;;;;;;;;;;5089811;28;20044;-78
2022/03/04 04:32:58;;;;;;;44.97;20.75;;;;;;;;;;5107075;28;20054;-76
2022/03/04 04:35:24;;;;;;;49.45;20.58;;;;;;;;;;5088212;28;20051;-76
2022/03/04 04:37:51;;;;;;;44.97;20.42;;;;;;;;;;5072464;28;20051;-76
2022/03/04 04:40:17;;;;;;;45.85;19.98;;;;;;;;;;5086233;28;20386;-77
2022/03/04 04:42:43;;;;;;;43.03;19.73;;;;;;;;;;5099970;28;20191;-77
2022/03/04 04:45:09;;;;;;;45.65;20.80;;;;;;;;;;5088643;28;20481;-77
2022/03/04 04:47:36;;;;;;;53.67;23.25;;;;;;;;;;5102507;28;20054;-77
2022/03/04 04:50:02;;;;;;;52.83;22.30;;;;;;;;;;5117009;27;20035;-76
2022/03/04 04:52:29;;;;;;;54.65;22.35;;;;;;;;;;5107158;28;20047;-76
2022/03/04 04:54:55;;;;;;;53.10;21.33;;;;;;;;;;5106018;28;20058;-76
2022/03/04 04:57:21;;;;;;;48.45;20.55;;;;;;;;;;5089096;28;20059;-77
2022/03/04 04:59:47;;;;;;;44.25;21.00;;;;;;;;;;5089464;28;20048;-76
2022/03/04 05:02:13;;;;;;;54.75;21.90;;;;;;;;;;5107938;28;20490;-77
2022/03/04 05:04:39;;;;;;;53.35;19.65;;;;;;;;;;5106504;28;20127;-77
2022/03/04 05:07:05;;;;;;;63.80;21.35;;;;;;;;;;5090769;28;20040;-77
2022/03/04 05:09:31;;;;;;;63.35;23.45;;;;;;;;;;5072403;28;20486;-77
2022/03/04 05:11:57;;;;;;;70.90;22.75;;;;;;;;;;5104729;28;20507;-76
2022/03/04 05:14:23;;;;;;;65.63;22.83;;;;;;;;;;5105127;28;20359;-77
2022/03/04 05:16:50;;;;;;;70.82;24.02;;;;;;;;;;5089426;28;20108;-76
2022/03/04 05:19:16;;;;;;;59.30;23.55;;;;;;;;;;5106313;28;20040;-76
2022/03/04 05:21:42;;;;;;;56.45;22.63;;;;;;;;;;5103889;28;20054;-76
2022/03/04 05:24:08;;;;;;;65.28;25.10;;;;;;;;;;5104902;28;20147;-75
2022/03/04 05:26:39;;;;;;;72.47;27.33;;;;;;;;;;5105902;28;20047;-78
2022/03/04 05:29:09;;;;;;;63.55;24.67;;;;;;;;;;5105988;28;20082;-78
2022/03/04 05:31:36;;;;;;;53.45;22.20;;;;;;;;;;5099256;28;20052;-79
2022/03/04 05:34:02;;;;;;;60.60;23.17;;;;;;;;;;5090063;28;20147;-79
2022/03/04 05:36:28;;;;;;;60.92;23.52;;;;;;;;;;5075012;28;20035;-77
2022/03/04 05:38:55;;;;;;;65.85;25.60;;;;;;;;;;5076752;28;20219;-77
2022/03/04 05:41:21;;;;;;;61.17;24.83;;;;;;;;;;5108415;28;20722;-78
2022/03/04 05:43:48;;;;;;;61.40;23.75;;;;;;;;;;5076879;28;20044;-78
2022/03/04 05:46:15;;;;;;;62.13;23.23;;;;;;;;;;5084021;28;20040;-77
2022/03/04 05:48:41;;;;;;;67.43;24.80;;;;;;;;;;5086911;28;20134;-77
2022/03/04 05:51:08;;;;;;;58.55;24.98;;;;;;;;;;5083594;28;20343;-77
2022/03/04 05:53:34;;;;;;;73.05;26.13;;;;;;;;;;5101046;28;20387;-78
2022/03/04 05:56:01;;;;;;;69.03;25.58;;;;;;;;;;5085520;28;20036;-79
2022/03/04 05:58:27;;;;;;;60.85;26.13;;;;;;;;;;5086695;28;20043;-79
2022/03/04 06:00:54;;;;;;;62.95;26.08;;;;;;;;;;5105662;28;20052;-78
2022/03/04 06:03:20;;;;;;;65.07;26.65;;;;;;;;;;5107741;28;20108;-80
2022/03/04 06:05:46;;;;;;;60.28;25.20;;;;;;;;;;5104286;28;20048;-76
2022/03/04 06:08:12;;;;;;;59.83;25.17;;;;;;;;;;5104804;27;20489;-76
2022/03/04 06:10:38;;;;;;;60.28;25.48;;;;;;;;;;5110458;28;20114;-76
2022/03/04 06:13:04;;;;;;;58.50;25.15;;;;;;;;;;5109739;28;20189;-76
2022/03/04 06:15:30;;;;;;;54.63;24.08;;;;;;;;;;5092788;28;20040;-77
2022/03/04 06:17:57;;;;;;;58.22;23.95;;;;;;;;;;5109376;28;20169;-76
2022/03/04 06:20:23;;;;;;;57.92;24.73;;;;;;;;;;5110196;28;20043;-76
2022/03/04 06:22:49;;;;;;;61.53;25.92;;;;;;;;;;5110913;28;20047;-76
2022/03/04 06:25:15;;;;;;;58.30;24.80;;;;;;;;;;5111792;28;20066;-76
2022/03/04 06:28:11;;;;;;;60.28;25.30;;;;;;;;;;5110834;28;20128;-76
2022/03/04 06:30:37;;;;;;;59.28;24.75;;;;;;;;;;5079072;28;20047;-77
2022/03/04 06:35:49;;;;;;;63.80;27.80;;;;;;;;;;5111379;28;20302;-76
2022/03/04 06:38:17;;;;;;;55.63;24.70;;;;;;;;;;5110360;28;20059;-76
2022/03/04 06:40:43;;;;;;;61.05;26.25;;;;;;;;;;5110082;28;20045;-77
2022/03/04 06:43:09;;;;;;;58.40;25.25;;;;;;;;;;5110705;28;20036;-76
2022/03/04 06:45:37;;;;;;;55.72;24.23;;;;;;;;;;5109661;28;20479;-77
2022/03/04 06:48:04;;;;;;;56.83;25.38;;;;;;;;;;5110051;28;20075;-77
2022/03/04 06:50:30;;;;;;;53.40;24.73;;;;;;;;;;5110639;28;20047;-76
2022/03/04 06:52:56;;;;;;;55.35;24.63;;;;;;;;;;5090604;28;20054;-77
2022/03/04 06:55:22;;;;;;;55.88;24.10;;;;;;;;;;5108637;28;20440;-77
2022/03/04 06:57:51;;;;;;;57.20;25.17;;;;;;;;;;5093944;28;20047;-77
2022/03/04 07:00:17;;;;;;;49.88;23.25;;;;;;;;;;5110473;28;20120;-77
2022/03/04 07:02:43;;;;;;;57.65;25.48;;;;;;;;;;5110520;28;20038;-77
2022/03/04 07:05:09;;;;;;;52.30;24.05;;;;;;;;;;5109935;28;20039;-77
2022/03/04 07:07:35;;;;;;;58.97;25.80;;;;;;;;;;5109891;28;20062;-77
2022/03/04 07:10:01;;;;;;;54.35;24.92;;;;;;;;;;5093025;28;20066;-77
2022/03/04 07:12:27;;;;;;;56.30;25.23;;;;;;;;;;5101522;28;20417;-76
2022/03/04 07:14:54;;;;;;;59.10;25.77;;;;;;;;;;5102785;28;20388;-76
2022/03/04 07:17:20;;;;;;;56.22;26.20;;;;;;;;;;5103208;28;20112;-76
2022/03/04 07:19:46;;;;;;;49.55;24.33;;;;;;;;;;5104890;28;20079;-77
2022/03/04 07:22:12;;;;;;;47.85;24.27;;;;;;;;;;5090289;28;20458;-77
2022/03/04 07:24:39;;;;;;;52.60;25.15;;;;;;;;;;5106293;28;20435;-77
2022/03/04 07:27:05;;;;;;;52.90;25.70;;;;;;;;;;5107047;28;20109;-77
2022/03/04 07:29:31;;;;;;;48.55;24.98;;;;;;;;;;5107652;28;20538;-77
2022/03/04 07:31:57;;;;;;;52.88;24.92;;;;;;;;;;5108406;28;21716;-77
2022/03/04 07:34:24;;;;;;;49.17;24.70;;;;;;;;;;5091491;28;20225;-77
2022/03/04 07:36:51;;;;;;;49.92;24.73;;;;;;;;;;5106402;28;20130;-77
2022/03/04 07:39:17;;;;;;;53.42;23.83;;;;;;;;;;5107092;28;20043;-77
2022/03/04 07:41:43;;;;;;;49.88;24.02;;;;;;;;;;5106636;28;20039;-76
2022/03/04 07:44:10;;;;;;;47.58;22.83;;;;;;;;;;5106823;28;20123;-77
2022/03/04 07:46:36;;;;;;;44.05;22.48;;;;;;;;;;5106494;28;20043;-77
2022/03/04 07:49:03;;;;;;;46.85;22.85;;;;;;;;;;5090254;28;20055;-78
2022/03/04 07:51:29;;;;;;;48.08;24.42;;;;;;;;;;5105603;28;20040;-77
2022/03/04 07:53:55;;;;;;;50.22;24.13;;;;;;;;;;5105243;28;20043;-78
2022/03/04 07:56:21;;;;;;;48.50;22.00;;;;;;;;;;5104319;28;20043;-78
2022/03/04 07:58:47;;;;;;;52.20;24.50;;;;;;;;;;5106402;28;20048;-78
2022/03/04 08:01:13;;;;;;;50.55;24.95;;;;;;;;;;5121367;27;20789;-77
2022/03/04 08:03:39;;;;;;;48.63;22.98;;;;;;;;;;5089930;28;20401;-77
2022/03/04 08:06:05;;;;;;;50.00;23.83;;;;;;;;;;5107387;28;20060;-77
2022/03/04 08:08:31;;;;;;;46.33;20.77;;;;;;;;;;5091373;28;20096;-78
2022/03/04 08:10:57;;;;;;;41.58;20.35;;;;;;;;;;5086557;28;20066;-77
2022/03/04 08:13:24;;;;;;;39.88;20.80;;;;;;;;;;5107904;28;20051;-77
2022/03/04 08:15:50;;;;;;;42.83;21.58;;;;;;;;;;5084971;28;20058;-78
2022/03/04 08:18:16;;;;;;;43.10;22.00;;;;;;;;;;5099663;28;20031;-77
2022/03/04 08:20:42;;;;;;;42.45;22.55;;;;;;;;;;5084843;28;20124;-77
2022/03/04 08:23:08;;;;;;;44.03;22.70;;;;;;;;;;5087876;28;20320;-76
2022/03/04 08:25:34;;;;;;;45.58;22.50;;;;;;;;;;5089305;28;20429;-76
2022/03/04 08:28:00;;;;;;;41.03;22.70;;;;;;;;;;5089911;28;20052;-78
2022/03/04 08:30:26;;;;;;;45.60;22.42;;;;;;;;;;5089801;28;20043;-76
2022/03/04 08:32:52;;;;;;;46.75;23.25;;;;;;;;;;5083974;28;20067;-76
2022/03/04 08:35:19;;;;;;;42.35;22.67;;;;;;;;;;5119737;27;20043;-77
2022/03/04 08:37:45;;;;;;;38.40;20.48;;;;;;;;;;5105293;28;20133;-76
2022/03/04 08:40:11;;;;;;;37.67;20.42;;;;;;;;;;5074121;28;20044;-76
2022/03/04 08:42:38;;;;;;;37.67;20.73;;;;;;;;;;5089399;28;20039;-77
2022/03/04 08:45:04;;;;;;;38.65;19.77;;;;;;;;;;5089923;28;20051;-77
2022/03/04 08:47:31;;;;;;;37.28;21.17;;;;;;;;;;5108597;28;20051;-77
2022/03/04 08:49:57;;;;;;;35.30;20.20;;;;;;;;;;5106474;28;20096;-76
2022/03/04 08:52:24;;;;;;;40.20;22.35;;;;;;;;;;5107479;28;20139;-77
2022/03/04 08:54:50;;;;;;;40.83;21.63;;;;;;;;;;5105335;28;20050;-77
2022/03/04 08:57:16;;;;;;;40.53;22.98;;;;;;;;;;5103066;28;20062;-79
2022/03/04 08:59:42;;;;;;;40.40;22.00;;;;;;;;;;5087978;28;20473;-78
2022/03/04 09:02:09;;;;;;;40.50;21.48;;;;;;;;;;5088610;28;20059;-77
2022/03/04 09:04:35;;;;;;;41.20;21.40;;;;;;;;;;5105197;28;20039;-77
2022/03/04 09:07:03;;;;;;;36.70;22.02;;;;;;;;;;5089359;28;20043;-78
2022/03/04 09:09:30;;;;;;;41.47;21.60;;;;;;;;;;5114687;27;20047;-78
2022/03/04 09:11:56;;;;;;;36.78;21.48;;;;;;;;;;5088885;28;20127;-78
2022/03/04 09:14:23;;;;;;;34.85;20.27;;;;;;;;;;5070930;28;20065;-78
2022/03/04 09:16:50;;;;;;;29.42;18.35;;;;;;;;;;5099237;28;20055;-80
2022/03/04 09:19:16;;;;;;;26.58;17.60;;;;;;;;;;5082228;28;20047;-80
2022/03/04 09:21:42;;;;;;;27.63;17.42;;;;;;;;;;5089023;28;20039;-77
2022/03/04 09:24:09;;;;;;;28.48;19.85;;;;;;;;;;5099758;28;20044;-77
2022/03/04 09:26:35;;;;;;;29.20;18.67;;;;;;;;;;5107356;28;20087;-78
2022/03/04 09:29:01;;;;;;;32.40;18.13;;;;;;;;;;5085598;28;20474;-78
2022/03/04 09:31:27;;;;;;;29.92;19.48;;;;;;;;;;5105770;28;20043;-78
2022/03/04 09:33:54;;;;;;;32.95;18.30;;;;;;;;;;5085948;28;20051;-80
2022/03/04 09:36:20;;;;;;;28.08;18.40;;;;;;;;;;5087303;28;20051;-78
2022/03/04 09:38:46;;;;;;;28.63;17.75;;;;;;;;;;5108825;28;20050;-76
2022/03/04 09:41:12;;;;;;;29.15;18.73;;;;;;;;;;5106828;28;20036;-78
2022/03/04 09:43:39;;;;;;;35.03;20.35;;;;;;;;;;5090320;28;20498;-77
2022/03/04 09:46:05;;;;;;;30.45;19.25;;;;;;;;;;5122216;27;20123;-77
2022/03/04 09:48:39;;;;;;;30.85;19.63;;;;;;;;;;5106646;28;20047;-77
2022/03/04 09:51:05;;;;;;;;;;;;;;;;;;5108008;28;20354;-79
2022/03/04 09:53:31;;;;;;;31.20;19.15;;;;;;;;;;5109906;28;19943;-80
2022/03/04 09:55:57;;;;;;;33.97;18.05;;;;;;;;;;5087308;28;20047;-79
2022/03/04 09:58:24;;;;;;;31.42;19.70;;;;;;;;;;5087212;28;20130;-78
2022/03/04 10:00:50;;;;;;;33.47;19.63;;;;;;;;;;5090576;28;21084;-78
2022/03/04 10:03:20;;;;;;;31.73;19.13;;;;;;;;;;5105576;28;20040;-78
2022/03/04 10:05:56;;;;;;;31.02;18.92;;;;;;;;;;5108178;28;20089;-79
2022/03/04 10:08:22;;;;;;;27.95;18.30;;;;;;;;;;5089535;28;20043;-80
2022/03/04 10:10:52;;;;;;;29.75;17.75;;;;;;;;;;5086786;28;20039;-78
2022/03/04 10:13:19;;;;;;;28.38;18.17;;;;;;;;;;5093277;28;20048;-80
2022/03/04 10:15:55;;;;;;;29.00;17.80;;;;;;;;;;5107155;28;20071;-78
2022/03/04 10:18:29;;;;;;;26.58;17.55;;;;;;;;;;5086971;28;20469;-80
2022/03/04 10:20:55;;;;;;;28.42;18.23;;;;;;;;;;5105101;28;20535;-80
2022/03/04 10:23:22;;;;;;;25.35;17.05;;;;;;;;;;5090780;28;20044;-80
2022/03/04 10:25:49;;;;;;;26.08;16.27;;;;;;;;;;5089758;28;20339;-80
2022/03/04 10:28:16;;;;;;;25.30;16.60;;;;;;;;;;5090089;28;20079;-80
2022/03/04 10:30:43;;;;;;;26.98;16.02;;;;;;;;;;5075645;28;20059;-80
2022/03/04 10:33:10;;;;;;;21.55;15.60;;;;;;;;;;5108748;28;20047;-79
2022/03/04 10:35:36;;;;;;;22.60;15.20;;;;;;;;;;5125420;27;20051;-79
2022/03/04 10:38:04;;;;;;;25.02;15.85;;;;;;;;;;5102667;28;20043;-79
2022/03/04 10:40:36;;;;;;;21.00;14.30;;;;;;;;;;5090409;28;20110;-80
2022/03/04 10:43:02;;;;;;;23.17;15.13;;;;;;;;;;5103622;28;20066;-79
2022/03/04 10:45:29;;;;;;;24.40;15.82;;;;;;;;;;5089300;28;20039;-79
2022/03/04 10:48:19;;;;;;;22.50;14.73;;;;;;;;;;5088861;28;20046;-81
2022/03/04 10:50:46;;;;;;;21.23;15.50;;;;;;;;;;5096042;28;20052;-80
2022/03/04 10:53:14;;;;;;;22.00;14.02;;;;;;;;;;5104647;28;20490;-80
2022/03/04 10:55:40;;;;;;;21.25;13.73;;;;;;;;;;5101177;28;20040;-81
2022/03/04 10:58:13;;;;;;;20.73;14.02;;;;;;;;;;5099914;28;20078;-80
2022/03/04 11:00:41;;;;;;;21.75;14.30;;;;;;;;;;5088597;28;20363;-79
2022/03/04 11:03:07;;;;;;;19.38;13.65;;;;;;;;;;5090737;28;20062;-78
2022/03/04 11:05:34;;;;;;;18.60;12.32;;;;;;;;;;5105985;28;20131;-80
2022/03/04 11:08:01;;;;;;;23.13;14.45;;;;;;;;;;5092011;28;20142;-80
2022/03/04 11:10:27;;;;;;;23.60;14.38;;;;;;;;;;5107392;28;20046;-80
2022/03/04 11:12:53;;;;;;;21.77;14.95;;;;;;;;;;5105486;28;20036;-79
2022/03/04 11:15:21;;;;;;;20.52;14.70;;;;;;;;;;5104152;28;20459;-80
2022/03/04 11:17:48;;;;;;;23.98;14.88;;;;;;;;;;5102372;28;20044;-79
2022/03/04 11:20:15;;;;;;;21.77;14.68;;;;;;;;;;5103972;28;20100;-79
2022/03/04 11:22:42;;;;;;;21.73;14.60;;;;;;;;;;5101223;28;20425;-81
2022/03/04 11:25:12;;;;;;;26.42;15.45;;;;;;;;;;5090850;28;20043;-78
2022/03/04 11:27:43;;;;;;;21.88;14.50;;;;;;;;;;5093895;28;20044;-78
2022/03/04 11:30:28;;;;;;;20.83;14.68;;;;;;;;;;5089788;28;20078;-78
2022/03/04 11:33:13;;;;;;;22.73;15.43;;;;;;;;;;5074987;28;20047;-76
2022/03/04 11:35:42;;;;;;;23.77;15.18;;;;;;;;;;5090091;28;20125;-80
2022/03/04 11:38:09;;;;;;;21.63;14.40;;;;;;;;;;5107418;28;20044;-81
2022/03/04 11:40:38;;;;;;;21.73;15.07;;;;;;;;;;5092855;28;20054;-80
2022/03/04 11:43:06;;;;;;;22.60;14.70;;;;;;;;;;5092404;28;20047;-79
2022/03/04 11:45:37;;;;;;;22.77;15.35;;;;;;;;;;5091593;28;20073;-80
2022/03/04 11:48:08;;;;;;;20.13;13.93;;;;;;;;;;5092147;28;20544;-81
2022/03/04 11:50:55;;;;;;;20.40;14.15;;;;;;;;;;5109868;28;20142;-81
2022/03/04 11:53:23;;;;;;;23.08;15.07;;;;;;;;;;5111168;28;20339;-81
2022/03/04 11:56:11;;;;;;;22.05;14.27;;;;;;;;;;5111521;28;20437;-80
2022/03/04 11:58:52;;;;;;;20.65;12.75;;;;;;;;;;5104560;28;20047;-78
2022/03/04 12:01:18;;;;;;;23.98;14.50;;;;;;;;;;5108045;28;20043;-80
2022/03/04 12:04:03;;;;;;;20.02;13.27;;;;;;;;;;5077813;28;20443;-79
2022/03/04 12:06:29;;;;;;;19.80;13.52;;;;;;;;;;5090077;28;20065;-80
2022/03/04 12:08:58;;;;;;;20.27;13.73;;;;;;;;;;5091819;28;20104;-80
2022/03/04 12:11:24;;;;;;;20.60;14.10;;;;;;;;;;5108964;28;20092;-80
2022/03/04 12:14:06;;;;;;;22.05;14.43;;;;;;;;;;5092191;28;20043;-81
2022/03/04 12:16:51;;;;;;;19.08;13.50;;;;;;;;;;5108554;28;20656;-79
2022/03/04 12:19:30;;;;;;;20.52;14.02;;;;;;;;;;5106991;28;20382;-79
2022/03/04 12:21:57;;;;;;;18.25;12.85;;;;;;;;;;5108414;28;20036;-79
2022/03/04 12:24:30;;;;;;;19.48;13.88;;;;;;;;;;5090044;28;20059;-80
2022/03/04 12:26:57;;;;;;;21.17;14.60;;;;;;;;;;5107628;28;20069;-79
2022/03/04 12:29:40;;;;;;;20.17;14.52;;;;;;;;;;5089795;28;20306;-79
2022/03/04 12:32:07;;;;;;;20.15;14.05;;;;;;;;;;5103746;27;20047;-79
2022/03/04 12:34:34;;;;;;;20.67;13.23;;;;;;;;;;5090220;28;20108;-80
2022/03/04 12:37:05;;;;;;;21.42;13.70;;;;;;;;;;5104512;28;20044;-80
2022/03/04 12:39:35;;;;;;;18.38;12.48;;;;;;;;;;5075912;28;20043;-80
2022/03/04 12:42:01;;;;;;;25.08;12.98;;;;;;;;;;5122072;27;20132;-80
2022/03/04 12:44:28;;;;;;;20.00;13.73;;;;;;;;;;5107920;28;20081;-80
2022/03/04 12:46:54;;;;;;;23.10;13.02;;;;;;;;;;5089524;28;20039;-80
2022/03/04 12:49:28;;;;;;;18.55;13.80;;;;;;;;;;5089189;28;20047;-80
2022/03/04 12:51:54;;;;;;;20.45;13.23;;;;;;;;;;5104497;28;20437;-80
2022/03/04 12:54:30;;;;;;;18.23;12.75;;;;;;;;;;5107122;28;20379;-80
2022/03/04 12:56:57;;;;;;;19.77;13.85;;;;;;;;;;5087236;28;20059;-79
2022/03/04 12:59:24;;;;;;;22.73;15.23;;;;;;;;;;5089113;28;20048;-79
2022/03/04 13:01:51;;;;;;;19.45;14.52;;;;;;;;;;5106652;28;20036;-79
2022/03/04 13:04:17;;;;;;;20.25;14.10;;;;;;;;;;5089973;28;20051;-80
2022/03/04 13:06:44;;;;;;;18.65;12.95;;;;;;;;;;5098965;28;20039;-80
2022/03/04 13:09:11;;;;;;;18.20;13.45;;;;;;;;;;5103610;28;20058;-80
2022/03/04 13:11:39;;;;;;;22.10;14.95;;;;;;;;;;5115771;27;20039;-79
2022/03/04 13:14:06;;;;;;;21.55;14.10;;;;;;;;;;5102476;28;20117;-80
2022/03/04 13:16:41;;;;;;;19.58;12.85;;;;;;;;;;5105483;28;20079;-79
2022/03/04 13:19:08;;;;;;;21.38;16.10;;;;;;;;;;5101192;28;20422;-78
2022/03/04 13:21:38;;;;;;;20.92;16.35;;;;;;;;;;5103806;28;20473;-79
2022/03/04 13:24:08;;;;;;;19.20;15.75;;;;;;;;;;5089771;28;20496;-80
2022/03/04 13:26:34;;;;;;;19.02;15.50;;;;;;;;;;5080497;28;20437;-80
2022/03/04 13:29:01;;;;;;;18.10;15.37;;;;;;;;;;5096310;28;20593;-79
2022/03/04 13:31:28;;;;;;;19.83;15.40;;;;;;;;;;5096442;28;20472;-79
2022/03/04 13:33:58;;;;;;;17.48;14.68;;;;;;;;;;5099951;28;20428;-77
2022/03/04 13:36:37;;;;;;;16.42;12.52;;;;;;;;;;5100360;28;20048;-77
2022/03/04 13:39:17;;;;;;;17.70;12.90;;;;;;;;;;5106588;28;20035;-80
2022/03/04 13:41:44;;;;;;;19.42;12.18;;;;;;;;;;5090887;28;20115;-76
2022/03/04 13:44:11;;;;;;;17.60;12.23;;;;;;;;;;5089183;28;20441;-78
2022/03/04 13:46:38;;;;;;;19.58;11.65;;;;;;;;;;5110942;28;20120;-77
2022/03/04 13:49:05;;;;;;;18.95;12.27;;;;;;;;;;5077874;28;20055;-76
2022/03/04 13:51:32;;;;;;;18.15;12.02;;;;;;;;;;5102312;28;20082;-75
2022/03/04 13:53:59;;;;;;;18.73;11.98;;;;;;;;;;5086937;28;21363;-75
2022/03/04 13:56:25;;;;;;;20.15;12.73;;;;;;;;;;5087419;28;20066;-76
2022/03/04 13:58:59;;;;;;;16.38;10.93;;;;;;;;;;5104418;28;20047;-74
2022/03/04 14:01:28;;;;;;;18.38;12.15;;;;;;;;;;5102994;28;20081;-76
2022/03/04 14:03:54;;;;;;;21.95;11.43;;;;;;;;;;5087941;28;20040;-75
2022/03/04 14:06:24;;;;;;;16.33;11.40;;;;;;;;;;5104256;28;20071;-76
2022/03/04 14:08:50;;;;;;;17.90;11.27;;;;;;;;;;5104515;28;20043;-73
2022/03/04 14:11:16;;;;;;;16.92;11.65;;;;;;;;;;5105704;28;20078;-80
2022/03/04 14:13:42;;;;;;;14.80;10.48;;;;;;;;;;5087565;28;20470;-76
2022/03/04 14:16:09;;;;;;;16.27;10.65;;;;;;;;;;5104724;28;20039;-77
2022/03/04 14:18:36;;;;;;;12.75;10.02;;;;;;;;;;5103986;28;20043;-78
2022/03/04 14:21:03;;;;;;;14.55;10.20;;;;;;;;;;5103519;28;20097;-80
2022/03/04 14:23:30;;;;;;;14.85;10.57;;;;;;;;;;5105670;28;20474;-81